sensor_id;sensor_type;location;lat;lon;timestamp;P1;durP1;ratioP1;P2;durP2;ratioP2
15616;SDS011;7908;51.688;7.130;2023-09-07T00:00:23;6.63;;;5.50;;
15616;SDS011;7908;51.688;7.130;2023-09-07T00:02:52;7.17;;;5.60;;
15616;SDS011;7908;51.688;7.130;2023-09-07T00:05:21;7.30;;;5.13;;
15616;SDS011;7908;51.688;7.130;2023-09-07T00:07:49;5.87;;;5.33;;
15616;SDS011;7908;51.688;7.130;2023-09-07T00:10:18;9.50;;;6.10;;
15616;SDS011;7908;51.688;7.130;2023-09-07T00:12:47;7.60;;;5.57;;
15616;SDS011;7908;51.688;7.130;2023-09-07T00:15:17;6.33;;;5.40;;
15616;SDS011;7908;51.688;7.130;2023-09-07T00:17:46;9.20;;;6.30;;
15616;SDS011;7908;51.688;7.130;2023-09-07T00:20:17;6.73;;;5.50;;
15616;SDS011;7908;51.688;7.130;2023-09-07T00:22:48;6.27;;;5.70;;
15616;SDS011;7908;51.688;7.130;2023-09-07T00:25:16;6.23;;;5.63;;
15616;SDS011;7908;51.688;7.130;2023-09-07T00:27:46;7.27;;;5.77;;
15616;SDS011;7908;51.688;7.130;2023-09-07T00:30:16;6.07;;;5.40;;
15616;SDS011;7908;51.688;7.130;2023-09-07T00:32:45;5.77;;;5.27;;
15616;SDS011;7908;51.688;7.130;2023-09-07T00:35:14;7.27;;;5.70;;
15616;SDS011;7908;51.688;7.130;2023-09-07T00:37:42;6.17;;;5.30;;
15616;SDS011;7908;51.688;7.130;2023-09-07T00:40:11;6.00;;;5.40;;
15616;SDS011;7908;51.688;7.130;2023-09-07T00:42:39;8.10;;;6.33;;
15616;SDS011;7908;51.688;7.130;2023-09-07T00:45:08;6.50;;;5.80;;
15616;SDS011;7908;51.688;7.130;2023-09-07T00:47:39;6.50;;;5.70;;
15616;SDS011;7908;51.688;7.130;2023-09-07T00:50:08;6.53;;;5.70;;
15616;SDS011;7908;51.688;7.130;2023-09-07T00:52:40;6.47;;;5.87;;
15616;SDS011;7908;51.688;7.130;2023-09-07T00:55:10;9.53;;;6.13;;
15616;SDS011;7908;51.688;7.130;2023-09-07T00:57:40;6.43;;;5.60;;
15616;SDS011;7908;51.688;7.130;2023-09-07T01:00:09;6.67;;;5.97;;
15616;SDS011;7908;51.688;7.130;2023-09-07T01:02:40;6.73;;;6.10;;
15616;SDS011;7908;51.688;7.130;2023-09-07T01:05:11;7.07;;;6.37;;
15616;SDS011;7908;51.688;7.130;2023-09-07T01:07:45;6.40;;;5.80;;
15616;SDS011;7908;51.688;7.130;2023-09-07T01:10:16;7.63;;;6.53;;
15616;SDS011;7908;51.688;7.130;2023-09-07T01:12:48;6.80;;;6.20;;
15616;SDS011;7908;51.688;7.130;2023-09-07T01:15:17;6.70;;;6.00;;
15616;SDS011;7908;51.688;7.130;2023-09-07T01:17:46;7.57;;;6.27;;
15616;SDS011;7908;51.688;7.130;2023-09-07T01:20:16;7.80;;;6.30;;
15616;SDS011;7908;51.688;7.130;2023-09-07T01:22:47;7.03;;;6.27;;
15616;SDS011;7908;51.688;7.130;2023-09-07T01:25:16;7.40;;;6.70;;
15616;SDS011;7908;51.688;7.130;2023-09-07T01:27:47;6.97;;;5.77;;
15616;SDS011;7908;51.688;7.130;2023-09-07T01:30:17;6.70;;;5.73;;
15616;SDS011;7908;51.688;7.130;2023-09-07T01:32:46;6.23;;;5.63;;
15616;SDS011;7908;51.688;7.130;2023-09-07T01:35:16;6.23;;;5.63;;
15616;SDS011;7908;51.688;7.130;2023-09-07T01:37:49;8.93;;;5.80;;
15616;SDS011;7908;51.688;7.130;2023-09-07T01:40:18;6.57;;;5.97;;
15616;SDS011;7908;51.688;7.130;2023-09-07T01:42:46;7.97;;;5.93;;
15616;SDS011;7908;51.688;7.130;2023-09-07T01:45:15;7.40;;;6.70;;
15616;SDS011;7908;51.688;7.130;2023-09-07T01:47:44;7.43;;;6.73;;
15616;SDS011;7908;51.688;7.130;2023-09-07T01:50:15;7.10;;;6.40;;
15616;SDS011;7908;51.688;7.130;2023-09-07T01:52:45;8.63;;;6.37;;
15616;SDS011;7908;51.688;7.130;2023-09-07T01:55:16;8.40;;;6.47;;
15616;SDS011;7908;51.688;7.130;2023-09-07T01:57:45;7.10;;;5.83;;
15616;SDS011;7908;51.688;7.130;2023-09-07T02:00:13;6.37;;;5.70;;
15616;SDS011;7908;51.688;7.130;2023-09-07T02:02:42;6.20;;;5.60;;
15616;SDS011;7908;51.688;7.130;2023-09-07T02:05:10;8.63;;;6.03;;
15616;SDS011;7908;51.688;7.130;2023-09-07T02:07:39;6.70;;;6.00;;
15616;SDS011;7908;51.688;7.130;2023-09-07T02:10:08;6.93;;;6.33;;
15616;SDS011;7908;51.688;7.130;2023-09-07T02:12:39;7.30;;;6.27;;
15616;SDS011;7908;51.688;7.130;2023-09-07T02:15:07;7.10;;;6.40;;
15616;SDS011;7908;51.688;7.130;2023-09-07T02:17:37;10.40;;;6.20;;
15616;SDS011;7908;51.688;7.130;2023-09-07T02:20:06;7.23;;;6.53;;
15616;SDS011;7908;51.688;7.130;2023-09-07T02:22:37;7.23;;;6.53;;
15616;SDS011;7908;51.688;7.130;2023-09-07T02:25:06;6.73;;;6.03;;
15616;SDS011;7908;51.688;7.130;2023-09-07T02:27:35;6.57;;;5.97;;
15616;SDS011;7908;51.688;7.130;2023-09-07T02:30:05;6.90;;;6.20;;
15616;SDS011;7908;51.688;7.130;2023-09-07T02:32:35;7.37;;;6.13;;
15616;SDS011;7908;51.688;7.130;2023-09-07T02:35:04;9.50;;;6.23;;
15616;SDS011;7908;51.688;7.130;2023-09-07T02:37:35;8.00;;;6.93;;
15616;SDS011;7908;51.688;7.130;2023-09-07T02:40:04;7.10;;;6.37;;
15616;SDS011;7908;51.688;7.130;2023-09-07T02:42:35;7.53;;;6.37;;
15616;SDS011;7908;51.688;7.130;2023-09-07T02:45:06;7.80;;;7.00;;
15616;SDS011;7908;51.688;7.130;2023-09-07T02:47:35;8.13;;;6.57;;
15616;SDS011;7908;51.688;7.130;2023-09-07T02:50:04;7.37;;;6.63;;
15616;SDS011;7908;51.688;7.130;2023-09-07T02:52:33;7.63;;;6.93;;
15616;SDS011;7908;51.688;7.130;2023-09-07T02:55:01;8.23;;;7.43;;
15616;SDS011;7908;51.688;7.130;2023-09-07T02:57:30;10.10;;;7.30;;
15616;SDS011;7908;51.688;7.130;2023-09-07T02:59:59;7.77;;;7.07;;
15616;SDS011;7908;51.688;7.130;2023-09-07T03:02:29;7.47;;;6.40;;
15616;SDS011;7908;51.688;7.130;2023-09-07T03:04:58;9.30;;;7.50;;
15616;SDS011;7908;51.688;7.130;2023-09-07T03:07:29;8.50;;;7.00;;
15616;SDS011;7908;51.688;7.130;2023-09-07T03:10:00;9.60;;;8.27;;
15616;SDS011;7908;51.688;7.130;2023-09-07T03:12:30;9.57;;;8.33;;
15616;SDS011;7908;51.688;7.130;2023-09-07T03:14:58;12.43;;;7.80;;
15616;SDS011;7908;51.688;7.130;2023-09-07T03:17:32;8.47;;;7.50;;
15616;SDS011;7908;51.688;7.130;2023-09-07T03:20:00;8.60;;;7.53;;
15616;SDS011;7908;51.688;7.130;2023-09-07T03:22:41;9.37;;;7.93;;
15616;SDS011;7908;51.688;7.130;2023-09-07T03:25:10;9.00;;;8.10;;
15616;SDS011;7908;51.688;7.130;2023-09-07T03:27:39;8.73;;;7.83;;
15616;SDS011;7908;51.688;7.130;2023-09-07T03:30:08;7.77;;;7.03;;
15616;SDS011;7908;51.688;7.130;2023-09-07T03:32:38;10.20;;;7.63;;
15616;SDS011;7908;51.688;7.130;2023-09-07T03:35:07;7.83;;;7.03;;
15616;SDS011;7908;51.688;7.130;2023-09-07T03:37:37;8.70;;;7.80;;
15616;SDS011;7908;51.688;7.130;2023-09-07T03:40:06;8.53;;;7.60;;
15616;SDS011;7908;51.688;7.130;2023-09-07T03:42:36;8.47;;;7.67;;
15616;SDS011;7908;51.688;7.130;2023-09-07T03:45:06;11.13;;;8.50;;
15616;SDS011;7908;51.688;7.130;2023-09-07T03:47:35;9.27;;;8.37;;
15616;SDS011;7908;51.688;7.130;2023-09-07T03:50:06;9.97;;;8.97;;
15616;SDS011;7908;51.688;7.130;2023-09-07T03:52:35;10.50;;;8.33;;
15616;SDS011;7908;51.688;7.130;2023-09-07T03:55:04;9.30;;;8.37;;
15616;SDS011;7908;51.688;7.130;2023-09-07T03:57:34;9.20;;;8.03;;
15616;SDS011;7908;51.688;7.130;2023-09-07T04:00:03;10.07;;;8.27;;
15616;SDS011;7908;51.688;7.130;2023-09-07T04:02:35;10.17;;;9.17;;
15616;SDS011;7908;51.688;7.130;2023-09-07T04:05:06;10.23;;;9.00;;
15616;SDS011;7908;51.688;7.130;2023-09-07T04:07:34;9.70;;;8.50;;
15616;SDS011;7908;51.688;7.130;2023-09-07T04:10:04;9.13;;;8.27;;
15616;SDS011;7908;51.688;7.130;2023-09-07T04:12:32;8.90;;;8.00;;
15616;SDS011;7908;51.688;7.130;2023-09-07T04:15:04;10.57;;;8.43;;
15616;SDS011;7908;51.688;7.130;2023-09-07T04:17:33;9.60;;;8.53;;
15616;SDS011;7908;51.688;7.130;2023-09-07T04:20:09;12.27;;;9.60;;
15616;SDS011;7908;51.688;7.130;2023-09-07T04:22:38;10.07;;;9.07;;
15616;SDS011;7908;51.688;7.130;2023-09-07T04:25:08;9.67;;;8.67;;
15616;SDS011;7908;51.688;7.130;2023-09-07T04:27:37;10.73;;;8.87;;
15616;SDS011;7908;51.688;7.130;2023-09-07T04:30:06;9.37;;;8.33;;
15616;SDS011;7908;51.688;7.130;2023-09-07T04:32:35;11.10;;;8.80;;
15616;SDS011;7908;51.688;7.130;2023-09-07T04:35:04;9.10;;;8.10;;
15616;SDS011;7908;51.688;7.130;2023-09-07T04:37:35;9.07;;;8.17;;
15616;SDS011;7908;51.688;7.130;2023-09-07T04:40:05;10.03;;;9.00;;
15616;SDS011;7908;51.688;7.130;2023-09-07T04:42:34;10.00;;;8.70;;
15616;SDS011;7908;51.688;7.130;2023-09-07T04:45:03;10.17;;;8.77;;
15616;SDS011;7908;51.688;7.130;2023-09-07T04:47:32;12.83;;;8.97;;
15616;SDS011;7908;51.688;7.130;2023-09-07T04:50:01;10.03;;;9.03;;
15616;SDS011;7908;51.688;7.130;2023-09-07T04:52:31;9.57;;;8.50;;
15616;SDS011;7908;51.688;7.130;2023-09-07T04:55:03;9.57;;;8.63;;
15616;SDS011;7908;51.688;7.130;2023-09-07T04:57:32;9.70;;;8.80;;
15616;SDS011;7908;51.688;7.130;2023-09-07T05:00:01;11.33;;;9.60;;
15616;SDS011;7908;51.688;7.130;2023-09-07T05:02:30;10.37;;;8.90;;
15616;SDS011;7908;51.688;7.130;2023-09-07T05:04:59;9.60;;;8.60;;
15616;SDS011;7908;51.688;7.130;2023-09-07T05:07:27;9.70;;;8.70;;
15616;SDS011;7908;51.688;7.130;2023-09-07T05:09:56;10.87;;;8.93;;
15616;SDS011;7908;51.688;7.130;2023-09-07T05:12:26;10.73;;;9.63;;
15616;SDS011;7908;51.688;7.130;2023-09-07T05:14:56;9.70;;;8.60;;
15616;SDS011;7908;51.688;7.130;2023-09-07T05:17:26;9.17;;;8.30;;
15616;SDS011;7908;51.688;7.130;2023-09-07T05:19:54;9.20;;;8.27;;
15616;SDS011;7908;51.688;7.130;2023-09-07T05:22:23;11.73;;;8.73;;
15616;SDS011;7908;51.688;7.130;2023-09-07T05:24:52;9.80;;;8.77;;
15616;SDS011;7908;51.688;7.130;2023-09-07T05:27:21;10.40;;;9.30;;
15616;SDS011;7908;51.688;7.130;2023-09-07T05:29:52;10.70;;;8.67;;
15616;SDS011;7908;51.688;7.130;2023-09-07T05:32:20;9.43;;;8.53;;
15616;SDS011;7908;51.688;7.130;2023-09-07T05:34:49;9.37;;;8.40;;
15616;SDS011;7908;51.688;7.130;2023-09-07T05:37:18;10.13;;;9.13;;
15616;SDS011;7908;51.688;7.130;2023-09-07T05:39:47;11.10;;;10.10;;
15616;SDS011;7908;51.688;7.130;2023-09-07T05:42:16;10.33;;;9.30;;
15616;SDS011;7908;51.688;7.130;2023-09-07T05:44:45;11.13;;;9.23;;
15616;SDS011;7908;51.688;7.130;2023-09-07T05:47:15;13.10;;;10.50;;
15616;SDS011;7908;51.688;7.130;2023-09-07T05:49:44;11.00;;;9.87;;
15616;SDS011;7908;51.688;7.130;2023-09-07T05:52:12;10.33;;;9.37;;
15616;SDS011;7908;51.688;7.130;2023-09-07T05:54:41;12.07;;;10.70;;
15616;SDS011;7908;51.688;7.130;2023-09-07T05:57:10;10.97;;;9.87;;
15616;SDS011;7908;51.688;7.130;2023-09-07T05:59:39;11.13;;;9.93;;
15616;SDS011;7908;51.688;7.130;2023-09-07T06:02:07;11.33;;;9.10;;
15616;SDS011;7908;51.688;7.130;2023-09-07T06:04:37;10.67;;;9.57;;
15616;SDS011;7908;51.688;7.130;2023-09-07T06:07:06;11.77;;;9.90;;
15616;SDS011;7908;51.688;7.130;2023-09-07T06:09:35;10.73;;;9.67;;
15616;SDS011;7908;51.688;7.130;2023-09-07T06:12:03;11.10;;;9.97;;
15616;SDS011;7908;51.688;7.130;2023-09-07T06:14:32;11.73;;;10.47;;
15616;SDS011;7908;51.688;7.130;2023-09-07T06:17:01;10.43;;;9.43;;
15616;SDS011;7908;51.688;7.130;2023-09-07T06:19:30;12.07;;;9.60;;
15616;SDS011;7908;51.688;7.130;2023-09-07T06:22:00;11.57;;;10.47;;
15616;SDS011;7908;51.688;7.130;2023-09-07T06:24:29;11.70;;;10.07;;
15616;SDS011;7908;51.688;7.130;2023-09-07T06:26:58;11.80;;;10.30;;
15616;SDS011;7908;51.688;7.130;2023-09-07T06:29:27;14.93;;;10.80;;
15616;SDS011;7908;51.688;7.130;2023-09-07T06:31:55;10.87;;;9.73;;
15616;SDS011;7908;51.688;7.130;2023-09-07T06:34:25;10.03;;;9.03;;
15616;SDS011;7908;51.688;7.130;2023-09-07T06:36:54;10.07;;;9.07;;
15616;SDS011;7908;51.688;7.130;2023-09-07T06:39:24;9.87;;;8.87;;
15616;SDS011;7908;51.688;7.130;2023-09-07T06:41:52;11.40;;;9.07;;
15616;SDS011;7908;51.688;7.130;2023-09-07T06:44:22;10.23;;;8.77;;
15616;SDS011;7908;51.688;7.130;2023-09-07T06:46:51;11.00;;;9.90;;
15616;SDS011;7908;51.688;7.130;2023-09-07T06:49:19;10.73;;;9.63;;
15616;SDS011;7908;51.688;7.130;2023-09-07T06:51:48;10.97;;;8.10;;
15616;SDS011;7908;51.688;7.130;2023-09-07T06:54:17;11.30;;;9.80;;
15616;SDS011;7908;51.688;7.130;2023-09-07T06:56:47;11.87;;;8.87;;
15616;SDS011;7908;51.688;7.130;2023-09-07T06:59:16;11.50;;;10.03;;
15616;SDS011;7908;51.688;7.130;2023-09-07T07:01:45;10.30;;;9.17;;
15616;SDS011;7908;51.688;7.130;2023-09-07T07:04:13;10.00;;;9.00;;
15616;SDS011;7908;51.688;7.130;2023-09-07T07:06:42;11.77;;;8.87;;
15616;SDS011;7908;51.688;7.130;2023-09-07T07:09:12;10.23;;;9.10;;
15616;SDS011;7908;51.688;7.130;2023-09-07T07:11:40;9.50;;;8.60;;
15616;SDS011;7908;51.688;7.130;2023-09-07T07:14:10;9.53;;;8.47;;
15616;SDS011;7908;51.688;7.130;2023-09-07T07:16:39;8.47;;;7.67;;
15616;SDS011;7908;51.688;7.130;2023-09-07T07:19:08;8.77;;;7.30;;
15616;SDS011;7908;51.688;7.130;2023-09-07T07:21:56;7.83;;;7.03;;
15616;SDS011;7908;51.688;7.130;2023-09-07T07:24:25;8.77;;;7.70;;
15616;SDS011;7908;51.688;7.130;2023-09-07T07:26:54;10.57;;;8.27;;
15616;SDS011;7908;51.688;7.130;2023-09-07T07:29:24;7.70;;;7.00;;
15616;SDS011;7908;51.688;7.130;2023-09-07T07:31:53;9.57;;;8.03;;
15616;SDS011;7908;51.688;7.130;2023-09-07T07:34:22;10.63;;;7.57;;
15616;SDS011;7908;51.688;7.130;2023-09-07T07:36:51;8.47;;;7.57;;
15616;SDS011;7908;51.688;7.130;2023-09-07T07:39:19;7.10;;;6.43;;
15616;SDS011;7908;51.688;7.130;2023-09-07T07:41:48;6.67;;;6.07;;
15616;SDS011;7908;51.688;7.130;2023-09-07T07:44:17;6.93;;;6.23;;
15616;SDS011;7908;51.688;7.130;2023-09-07T07:46:47;7.63;;;6.27;;
15616;SDS011;7908;51.688;7.130;2023-09-07T07:49:16;7.33;;;5.73;;
15616;SDS011;7908;51.688;7.130;2023-09-07T07:51:45;7.47;;;6.27;;
15616;SDS011;7908;51.688;7.130;2023-09-07T07:54:13;9.80;;;5.43;;
15616;SDS011;7908;51.688;7.130;2023-09-07T07:56:43;7.20;;;5.97;;
15616;SDS011;7908;51.688;7.130;2023-09-07T07:59:11;6.10;;;5.43;;
15616;SDS011;7908;51.688;7.130;2023-09-07T08:01:42;6.53;;;5.57;;
15616;SDS011;7908;51.688;7.130;2023-09-07T08:04:12;6.43;;;5.30;;
15616;SDS011;7908;51.688;7.130;2023-09-07T08:06:41;6.30;;;5.47;;
15616;SDS011;7908;51.688;7.130;2023-09-07T08:09:10;6.73;;;5.87;;
15616;SDS011;7908;51.688;7.130;2023-09-07T08:11:39;7.47;;;5.40;;
15616;SDS011;7908;51.688;7.130;2023-09-07T08:14:08;6.22;;;4.72;;
15616;SDS011;7908;51.688;7.130;2023-09-07T08:16:37;5.90;;;4.43;;
15616;SDS011;7908;51.688;7.130;2023-09-07T08:19:06;6.05;;;4.30;;
15616;SDS011;7908;51.688;7.130;2023-09-07T08:21:36;4.93;;;4.25;;
15616;SDS011;7908;51.688;7.130;2023-09-07T08:24:05;4.60;;;4.00;;
15616;SDS011;7908;51.688;7.130;2023-09-07T08:26:34;6.30;;;3.80;;
15616;SDS011;7908;51.688;7.130;2023-09-07T08:29:07;4.53;;;4.03;;
15616;SDS011;7908;51.688;7.130;2023-09-07T08:31:38;8.85;;;4.40;;
15616;SDS011;7908;51.688;7.130;2023-09-07T08:34:12;5.00;;;4.15;;
15616;SDS011;7908;51.688;7.130;2023-09-07T08:36:43;4.18;;;3.60;;
15616;SDS011;7908;51.688;7.130;2023-09-07T08:39:13;5.40;;;3.75;;
15616;SDS011;7908;51.688;7.130;2023-09-07T08:41:42;5.18;;;3.95;;
15616;SDS011;7908;51.688;7.130;2023-09-07T08:44:27;4.93;;;3.78;;
15616;SDS011;7908;51.688;7.130;2023-09-07T08:46:57;4.13;;;3.70;;
15616;SDS011;7908;51.688;7.130;2023-09-07T08:49:28;4.20;;;3.60;;
15616;SDS011;7908;51.688;7.130;2023-09-07T08:52:03;5.07;;;3.33;;
15616;SDS011;7908;51.688;7.130;2023-09-07T08:54:33;3.92;;;3.42;;
15616;SDS011;7908;51.688;7.130;2023-09-07T08:57:07;4.05;;;3.20;;
15616;SDS011;7908;51.688;7.130;2023-09-07T08:59:37;6.13;;;3.58;;
15616;SDS011;7908;51.688;7.130;2023-09-07T09:02:07;3.95;;;3.17;;
15616;SDS011;7908;51.688;7.130;2023-09-07T09:04:38;4.68;;;3.75;;
15616;SDS011;7908;51.688;7.130;2023-09-07T09:07:08;3.80;;;3.38;;
15616;SDS011;7908;51.688;7.130;2023-09-07T09:09:37;5.60;;;3.50;;
15616;SDS011;7908;51.688;7.130;2023-09-07T09:12:06;5.38;;;3.30;;
15616;SDS011;7908;51.688;7.130;2023-09-07T09:14:36;5.25;;;3.30;;
15616;SDS011;7908;51.688;7.130;2023-09-07T09:17:05;4.22;;;3.33;;
15616;SDS011;7908;51.688;7.130;2023-09-07T09:19:35;5.78;;;3.20;;
15616;SDS011;7908;51.688;7.130;2023-09-07T09:22:04;4.20;;;3.40;;
15616;SDS011;7908;51.688;7.130;2023-09-07T09:24:36;3.22;;;2.85;;
15616;SDS011;7908;51.688;7.130;2023-09-07T09:27:05;5.13;;;3.60;;
15616;SDS011;7908;51.688;7.130;2023-09-07T09:29:34;5.25;;;3.55;;
15616;SDS011;7908;51.688;7.130;2023-09-07T09:32:04;5.07;;;3.20;;
15616;SDS011;7908;51.688;7.130;2023-09-07T09:34:36;8.32;;;3.60;;
15616;SDS011;7908;51.688;7.130;2023-09-07T09:37:12;6.20;;;3.58;;
15616;SDS011;7908;51.688;7.130;2023-09-07T09:39:43;6.47;;;3.53;;
15616;SDS011;7908;51.688;7.130;2023-09-07T09:42:19;4.70;;;3.60;;
15616;SDS011;7908;51.688;7.130;2023-09-07T09:44:48;5.07;;;3.30;;
15616;SDS011;7908;51.688;7.130;2023-09-07T09:47:23;5.55;;;3.72;;
15616;SDS011;7908;51.688;7.130;2023-09-07T09:49:53;6.20;;;3.33;;
15616;SDS011;7908;51.688;7.130;2023-09-07T09:52:23;6.90;;;4.22;;
15616;SDS011;7908;51.688;7.130;2023-09-07T09:54:57;7.10;;;4.07;;
15616;SDS011;7908;51.688;7.130;2023-09-07T09:57:26;11.13;;;3.70;;
15616;SDS011;7908;51.688;7.130;2023-09-07T09:59:58;6.88;;;3.90;;
15616;SDS011;7908;51.688;7.130;2023-09-07T10:02:34;8.88;;;5.25;;
15616;SDS011;7908;51.688;7.130;2023-09-07T10:05:05;5.85;;;4.40;;
15616;SDS011;7908;51.688;7.130;2023-09-07T10:07:41;4.95;;;3.75;;
15616;SDS011;7908;51.688;7.130;2023-09-07T10:10:12;4.40;;;3.80;;
15616;SDS011;7908;51.688;7.130;2023-09-07T10:12:41;4.18;;;3.42;;
15616;SDS011;7908;51.688;7.130;2023-09-07T10:15:21;5.10;;;3.67;;
15616;SDS011;7908;51.688;7.130;2023-09-07T10:20:48;5.93;;;3.20;;
15616;SDS011;7908;51.688;7.130;2023-09-07T10:23:18;6.05;;;3.45;;
15616;SDS011;7908;51.688;7.130;2023-09-07T10:25:49;4.35;;;3.65;;
15616;SDS011;7908;51.688;7.130;2023-09-07T10:28:21;6.85;;;3.58;;
15616;SDS011;7908;51.688;7.130;2023-09-07T10:31:00;6.93;;;3.25;;
15616;SDS011;7908;51.688;7.130;2023-09-07T10:33:31;4.57;;;3.50;;
15616;SDS011;7908;51.688;7.130;2023-09-07T10:36:01;5.28;;;3.35;;
15616;SDS011;7908;51.688;7.130;2023-09-07T10:38:32;8.07;;;3.35;;
15616;SDS011;7908;51.688;7.130;2023-09-07T10:41:03;8.13;;;3.70;;
15616;SDS011;7908;51.688;7.130;2023-09-07T10:43:32;8.02;;;3.38;;
15616;SDS011;7908;51.688;7.130;2023-09-07T10:46:02;3.80;;;2.97;;
15616;SDS011;7908;51.688;7.130;2023-09-07T10:48:31;5.90;;;3.90;;
15616;SDS011;7908;51.688;7.130;2023-09-07T10:51:02;5.55;;;3.30;;
15616;SDS011;7908;51.688;7.130;2023-09-07T10:53:33;4.65;;;3.55;;
15616;SDS011;7908;51.688;7.130;2023-09-07T10:56:05;6.72;;;3.75;;
15616;SDS011;7908;51.688;7.130;2023-09-07T10:58:34;4.00;;;3.45;;
15616;SDS011;7908;51.688;7.130;2023-09-07T11:01:05;6.60;;;3.78;;
15616;SDS011;7908;51.688;7.130;2023-09-07T11:03:33;4.03;;;3.15;;
15616;SDS011;7908;51.688;7.130;2023-09-07T11:06:04;5.78;;;3.20;;
15616;SDS011;7908;51.688;7.130;2023-09-07T11:08:36;3.70;;;2.90;;
15616;SDS011;7908;51.688;7.130;2023-09-07T11:11:08;4.95;;;3.47;;
15616;SDS011;7908;51.688;7.130;2023-09-07T11:13:36;5.65;;;3.10;;
15616;SDS011;7908;51.688;7.130;2023-09-07T11:16:09;7.63;;;3.28;;
15616;SDS011;7908;51.688;7.130;2023-09-07T11:18:39;4.72;;;3.25;;
15616;SDS011;7908;51.688;7.130;2023-09-07T11:21:13;5.95;;;3.50;;
15616;SDS011;7908;51.688;7.130;2023-09-07T11:23:46;4.75;;;3.15;;
15616;SDS011;7908;51.688;7.130;2023-09-07T11:26:17;5.70;;;3.22;;
15616;SDS011;7908;51.688;7.130;2023-09-07T11:28:46;8.13;;;3.15;;
15616;SDS011;7908;51.688;7.130;2023-09-07T11:31:17;6.55;;;2.95;;
15616;SDS011;7908;51.688;7.130;2023-09-07T11:33:47;5.78;;;3.08;;
15616;SDS011;7908;51.688;7.130;2023-09-07T11:36:16;3.17;;;2.88;;
15616;SDS011;7908;51.688;7.130;2023-09-07T11:38:50;5.15;;;3.05;;
15616;SDS011;7908;51.688;7.130;2023-09-07T11:41:20;4.10;;;3.13;;
15616;SDS011;7908;51.688;7.130;2023-09-07T11:43:52;4.93;;;2.97;;
15616;SDS011;7908;51.688;7.130;2023-09-07T11:46:21;5.78;;;2.97;;
15616;SDS011;7908;51.688;7.130;2023-09-07T11:48:50;5.70;;;3.83;;
15616;SDS011;7908;51.688;7.130;2023-09-07T11:51:19;4.72;;;3.28;;
15616;SDS011;7908;51.688;7.130;2023-09-07T11:53:48;4.15;;;3.75;;
15616;SDS011;7908;51.688;7.130;2023-09-07T11:56:17;4.13;;;2.92;;
15616;SDS011;7908;51.688;7.130;2023-09-07T11:58:48;8.07;;;3.67;;
15616;SDS011;7908;51.688;7.130;2023-09-07T12:01:17;10.88;;;3.33;;
15616;SDS011;7908;51.688;7.130;2023-09-07T12:03:46;4.90;;;3.10;;
15616;SDS011;7908;51.688;7.130;2023-09-07T12:06:18;5.47;;;3.30;;
15616;SDS011;7908;51.688;7.130;2023-09-07T12:08:58;5.10;;;3.35;;
15616;SDS011;7908;51.688;7.130;2023-09-07T12:11:27;7.68;;;3.47;;
15616;SDS011;7908;51.688;7.130;2023-09-07T12:13:57;4.72;;;3.15;;
15616;SDS011;7908;51.688;7.130;2023-09-07T12:16:26;4.70;;;3.40;;
15616;SDS011;7908;51.688;7.130;2023-09-07T12:18:55;7.75;;;3.50;;
15616;SDS011;7908;51.688;7.130;2023-09-07T12:21:24;8.30;;;3.80;;
15616;SDS011;7908;51.688;7.130;2023-09-07T12:23:53;6.18;;;3.20;;
15616;SDS011;7908;51.688;7.130;2023-09-07T12:26:21;4.85;;;3.95;;
15616;SDS011;7908;51.688;7.130;2023-09-07T12:28:51;3.38;;;3.03;;
15616;SDS011;7908;51.688;7.130;2023-09-07T12:31:22;5.65;;;3.20;;
15616;SDS011;7908;51.688;7.130;2023-09-07T12:33:51;6.63;;;3.60;;
15616;SDS011;7908;51.688;7.130;2023-09-07T12:36:20;5.72;;;3.40;;
15616;SDS011;7908;51.688;7.130;2023-09-07T12:38:55;4.88;;;3.30;;
15616;SDS011;7908;51.688;7.130;2023-09-07T12:41:27;8.90;;;3.22;;
15616;SDS011;7908;51.688;7.130;2023-09-07T12:43:57;4.50;;;3.63;;
15616;SDS011;7908;51.688;7.130;2023-09-07T12:46:28;4.68;;;3.35;;
15616;SDS011;7908;51.688;7.130;2023-09-07T12:48:57;4.22;;;3.10;;
15616;SDS011;7908;51.688;7.130;2023-09-07T12:51:26;4.72;;;3.80;;
15616;SDS011;7908;51.688;7.130;2023-09-07T12:53:54;4.63;;;3.58;;
15616;SDS011;7908;51.688;7.130;2023-09-07T12:56:23;7.30;;;3.70;;
15616;SDS011;7908;51.688;7.130;2023-09-07T12:58:53;4.80;;;3.40;;
15616;SDS011;7908;51.688;7.130;2023-09-07T13:01:23;4.63;;;3.30;;
15616;SDS011;7908;51.688;7.130;2023-09-07T13:03:55;5.30;;;3.47;;
15616;SDS011;7908;51.688;7.130;2023-09-07T13:06:27;3.35;;;3.05;;
15616;SDS011;7908;51.688;7.130;2023-09-07T13:08:56;5.15;;;3.28;;
15616;SDS011;7908;51.688;7.130;2023-09-07T13:11:24;4.72;;;3.38;;
15616;SDS011;7908;51.688;7.130;2023-09-07T13:13:53;4.72;;;3.38;;
15616;SDS011;7908;51.688;7.130;2023-09-07T13:16:24;6.00;;;3.70;;
15616;SDS011;7908;51.688;7.130;2023-09-07T13:18:55;8.75;;;3.53;;
15616;SDS011;7908;51.688;7.130;2023-09-07T13:21:29;6.15;;;3.42;;
15616;SDS011;7908;51.688;7.130;2023-09-07T13:24:00;3.95;;;3.50;;
15616;SDS011;7908;51.688;7.130;2023-09-07T13:26:29;7.25;;;3.38;;
15616;SDS011;7908;51.688;7.130;2023-09-07T13:29:03;5.68;;;2.80;;
15616;SDS011;7908;51.688;7.130;2023-09-07T13:31:33;5.93;;;3.33;;
15616;SDS011;7908;51.688;7.130;2023-09-07T13:34:05;9.07;;;3.00;;
15616;SDS011;7908;51.688;7.130;2023-09-07T13:36:34;3.00;;;2.70;;
15616;SDS011;7908;51.688;7.130;2023-09-07T13:39:03;6.00;;;2.95;;
15616;SDS011;7908;51.688;7.130;2023-09-07T13:41:33;3.95;;;3.15;;
15616;SDS011;7908;51.688;7.130;2023-09-07T13:44:09;3.85;;;3.40;;
15616;SDS011;7908;51.688;7.130;2023-09-07T13:46:46;5.97;;;3.13;;
15616;SDS011;7908;51.688;7.130;2023-09-07T13:49:17;4.20;;;3.10;;
15616;SDS011;7908;51.688;7.130;2023-09-07T13:51:46;5.97;;;3.05;;
15616;SDS011;7908;51.688;7.130;2023-09-07T13:54:15;4.28;;;3.08;;
15616;SDS011;7908;51.688;7.130;2023-09-07T13:56:46;3.05;;;2.75;;
15616;SDS011;7908;51.688;7.130;2023-09-07T13:59:20;3.17;;;2.80;;
15616;SDS011;7908;51.688;7.130;2023-09-07T14:01:58;5.68;;;2.88;;
15616;SDS011;7908;51.688;7.130;2023-09-07T14:04:31;4.90;;;3.15;;
15616;SDS011;7908;51.688;7.130;2023-09-07T14:07:03;4.13;;;3.40;;
15616;SDS011;7908;51.688;7.130;2023-09-07T14:09:33;3.10;;;2.63;;
15616;SDS011;7908;51.688;7.130;2023-09-07T14:12:02;3.85;;;2.78;;
15616;SDS011;7908;51.688;7.130;2023-09-07T14:14:37;6.15;;;3.50;;
15616;SDS011;7908;51.688;7.130;2023-09-07T14:17:06;3.30;;;2.67;;
15616;SDS011;7908;51.688;7.130;2023-09-07T14:19:39;6.47;;;3.10;;
15616;SDS011;7908;51.688;7.130;2023-09-07T14:22:09;4.22;;;2.63;;
15616;SDS011;7908;51.688;7.130;2023-09-07T14:24:39;4.43;;;2.90;;
15616;SDS011;7908;51.688;7.130;2023-09-07T14:27:08;3.72;;;2.92;;
15616;SDS011;7908;51.688;7.130;2023-09-07T14:29:40;6.53;;;3.00;;
15616;SDS011;7908;51.688;7.130;2023-09-07T14:32:12;7.03;;;3.90;;
15616;SDS011;7908;51.688;7.130;2023-09-07T14:34:42;12.68;;;4.93;;
15616;SDS011;7908;51.688;7.130;2023-09-07T14:37:11;6.43;;;3.00;;
15616;SDS011;7908;51.688;7.130;2023-09-07T14:39:40;5.88;;;4.50;;
15616;SDS011;7908;51.688;7.130;2023-09-07T14:42:14;6.35;;;4.32;;
15616;SDS011;7908;51.688;7.130;2023-09-07T14:44:46;5.68;;;3.08;;
15616;SDS011;7908;51.688;7.130;2023-09-07T14:47:19;4.60;;;3.38;;
15616;SDS011;7908;51.688;7.130;2023-09-07T14:49:57;3.63;;;2.50;;
15616;SDS011;7908;51.688;7.130;2023-09-07T14:52:30;3.53;;;3.20;;
15616;SDS011;7908;51.688;7.130;2023-09-07T14:55:08;5.68;;;3.17;;
15616;SDS011;7908;51.688;7.130;2023-09-07T14:57:37;4.97;;;3.15;;
15616;SDS011;7908;51.688;7.130;2023-09-07T15:00:08;4.80;;;3.65;;
15616;SDS011;7908;51.688;7.130;2023-09-07T15:02:40;5.15;;;3.22;;
15616;SDS011;7908;51.688;7.130;2023-09-07T15:05:14;3.50;;;2.83;;
15616;SDS011;7908;51.688;7.130;2023-09-07T15:07:44;3.13;;;2.72;;
15616;SDS011;7908;51.688;7.130;2023-09-07T15:10:13;2.88;;;2.50;;
15616;SDS011;7908;51.688;7.130;2023-09-07T15:12:47;3.65;;;2.65;;
15616;SDS011;7908;51.688;7.130;2023-09-07T15:15:15;4.93;;;3.28;;
15616;SDS011;7908;51.688;7.130;2023-09-07T15:17:46;4.55;;;2.90;;